Time;durP1;ratioP1;P1;durP2;ratioP2;P2;SDS_P1;SDS_P2;PMS_P1;PMS_P2;Temp;Humidity;BMP_temperature;BMP_pressure;BME280_temperature;BME280_humidity;BME280_pressure;Samples;Min_cycle;Max_cycle;Signal;HPM_P1;HPM_P2
2024/03/23 00:02:03;;;;;;;23.20;4.13;;;6.20;99.90;;;;;;4994221;28;20033;-49
2024/03/23 00:04:29;;;;;;;15.48;3.70;;;6.10;99.90;;;;;;4967208;28;20125;-52
2024/03/23 00:06:56;;;;;;;14.52;3.83;;;6.10;99.90;;;;;;4989724;28;20029;-54
2024/03/23 00:09:24;;;;;;;11.60;3.50;;;6.10;99.90;;;;;;4978607;28;20029;-50
2024/03/23 00:11:50;;;;;;;16.55;4.05;;;6.10;99.90;;;;;;4988070;28;20029;-48
2024/03/23 00:14:17;;;;;;;17.95;4.43;;;6.10;99.90;;;;;;4988523;28;20409;-54
2024/03/23 00:16:43;;;;;;;11.68;4.03;;;6.00;99.90;;;;;;4965135;28;20029;-52
2024/03/23 00:19:10;;;;;;;14.38;3.55;;;6.00;99.90;;;;;;4982014;28;20511;-52
2024/03/23 00:21:38;;;;;;;13.52;3.75;;;6.00;99.90;;;;;;4986529;28;20132;-53
2024/03/23 00:24:08;;;;;;;15.55;4.22;;;6.00;99.90;;;;;;4980196;28;20026;-58
2024/03/23 00:26:34;;;;;;;12.18;3.05;;;6.00;99.90;;;;;;4980756;28;20033;-50
2024/03/23 00:29:01;;;;;;;17.80;5.20;;;6.00;99.90;;;;;;4991126;28;20038;-51
2024/03/23 00:31:27;;;;;;;12.35;3.15;;;5.90;99.90;;;;;;4975353;28;20037;-51
2024/03/23 00:33:54;;;;;;;11.98;3.75;;;5.90;99.90;;;;;;4981773;28;20025;-51
2024/03/23 00:36:20;;;;;;;14.88;3.40;;;5.90;99.90;;;;;;4955957;28;20025;-51
2024/03/23 00:38:47;;;;;;;10.35;2.88;;;5.90;99.90;;;;;;4979983;28;21224;-47
2024/03/23 00:41:14;;;;;;;16.95;3.85;;;5.90;99.90;;;;;;4978619;28;20038;-53
2024/03/23 00:43:40;;;;;;;21.33;4.20;;;5.90;99.90;;;;;;4953053;28;20518;-50
2024/03/23 00:46:07;;;;;;;17.92;3.55;;;5.90;99.90;;;;;;4957432;28;20034;-49
2024/03/23 00:48:34;;;;;;;13.35;3.47;;;5.80;99.90;;;;;;4943606;28;21568;-51
2024/03/23 00:51:00;;;;;;;12.45;3.38;;;5.80;99.90;;;;;;4974905;28;20021;-53
2024/03/23 00:53:27;;;;;;;16.30;3.65;;;5.80;99.90;;;;;;4945511;28;20022;-58
2024/03/23 00:55:52;;;;;;;11.15;3.22;;;5.80;99.90;;;;;;4971464;28;20212;-51
2024/03/23 00:58:18;;;;;;;19.88;3.60;;;5.80;99.90;;;;;;4944241;28;22609;-48
2024/03/23 01:00:43;;;;;;;9.43;3.05;;;5.80;99.90;;;;;;4983561;28;20025;-50
2024/03/23 01:03:09;;;;;;;16.08;3.55;;;5.70;99.90;;;;;;4938394;28;20521;-58
2024/03/23 01:05:34;;;;;;;12.00;3.22;;;5.70;99.90;;;;;;4971369;28;20037;-57
2024/03/23 01:08:00;;;;;;;11.90;3.10;;;5.70;99.90;;;;;;4988225;28;20037;-48
2024/03/23 01:10:25;;;;;;;16.98;3.28;;;5.70;99.90;;;;;;4913676;28;20025;-53
2024/03/23 01:12:51;;;;;;;17.00;3.63;;;5.70;99.90;;;;;;4991503;28;20022;-52
2024/03/23 01:15:16;;;;;;;9.18;2.85;;;5.60;99.90;;;;;;4957809;28;20033;-50
2024/03/23 01:17:42;;;;;;;8.65;2.78;;;5.60;99.90;;;;;;4969435;28;20028;-51
2024/03/23 01:20:08;;;;;;;12.00;3.60;;;5.60;99.90;;;;;;4985506;28;20031;-53
2024/03/23 01:22:33;;;;;;;17.13;3.10;;;5.50;99.90;;;;;;4958061;28;20030;-50
2024/03/23 01:24:59;;;;;;;9.98;2.90;;;5.50;99.90;;;;;;4963186;28;20014;-58
2024/03/23 01:27:25;;;;;;;18.83;3.65;;;5.50;99.90;;;;;;4947468;28;21324;-49
2024/03/23 01:29:52;;;;;;;16.20;4.88;;;5.50;99.90;;;;;;4960830;28;21848;-48
2024/03/23 01:32:23;;;;;;;21.88;3.45;;;5.50;99.90;;;;;;4962864;28;20414;-51
2024/03/23 01:34:49;;;;;;;11.45;2.83;;;5.50;99.90;;;;;;4948379;28;20041;-51
2024/03/23 01:37:14;;;;;;;16.40;3.88;;;5.40;99.90;;;;;;4927826;28;20486;-54
2024/03/23 01:39:40;;;;;;;7.82;2.35;;;5.40;99.90;;;;;;4981579;28;20383;-51
2024/03/23 01:42:06;;;;;;;11.27;3.00;;;5.40;99.90;;;;;;4950514;28;20131;-58
2024/03/23 01:44:31;;;;;;;9.55;2.92;;;5.40;99.90;;;;;;4966437;28;20034;-59
2024/03/23 01:46:57;;;;;;;10.00;3.05;;;5.40;99.90;;;;;;4924998;28;20083;-50
2024/03/23 01:49:22;;;;;;;13.05;3.95;;;5.30;99.90;;;;;;4935332;28;20038;-49
2024/03/23 01:51:49;;;;;;;11.25;3.80;;;5.30;99.90;;;;;;4953525;28;20018;-47
2024/03/23 01:54:15;;;;;;;9.35;2.72;;;5.30;99.90;;;;;;4951089;28;20032;-50
2024/03/23 01:56:41;;;;;;;12.98;3.38;;;5.30;99.90;;;;;;4952950;28;20078;-53
2024/03/23 01:59:07;;;;;;;15.45;3.53;;;5.20;99.90;;;;;;4992384;28;20033;-48
2024/03/23 02:01:38;;;;;;;8.07;2.72;;;5.20;99.90;;;;;;4941723;28;20485;-51
2024/03/23 02:04:03;;;;;;;9.45;2.92;;;5.20;99.90;;;;;;4920454;28;20030;-47
2024/03/23 02:06:29;;;;;;;14.05;3.92;;;5.20;99.90;;;;;;4924045;28;20029;-50
2024/03/23 02:08:55;;;;;;;11.05;2.75;;;5.10;99.90;;;;;;4969386;28;20037;-51
2024/03/23 02:11:21;;;;;;;9.27;2.30;;;5.10;99.90;;;;;;4946243;28;20018;-54
2024/03/23 02:13:46;;;;;;;13.40;2.78;;;5.10;99.90;;;;;;4940167;28;20541;-51
2024/03/23 02:16:13;;;;;;;9.02;2.80;;;5.10;99.90;;;;;;4923771;28;20030;-50
2024/03/23 02:18:38;;;;;;;11.25;2.25;;;5.00;99.90;;;;;;4974161;28;20034;-53
2024/03/23 02:21:05;;;;;;;10.57;3.17;;;5.00;99.90;;;;;;4939641;28;20029;-59
2024/03/23 02:23:30;;;;;;;9.13;2.60;;;5.00;99.90;;;;;;4948494;28;20640;-57
2024/03/23 02:25:56;;;;;;;15.60;3.13;;;4.90;99.90;;;;;;4936630;28;20029;-51
2024/03/23 02:28:22;;;;;;;17.30;3.22;;;4.90;99.90;;;;;;4941089;28;21101;-49
2024/03/23 02:30:49;;;;;;;12.45;3.15;;;4.90;99.90;;;;;;4960068;28;20472;-53
2024/03/23 02:33:14;;;;;;;17.27;4.15;;;4.90;99.90;;;;;;4947553;28;20137;-50
2024/03/23 02:35:40;;;;;;;13.13;3.03;;;4.90;99.90;;;;;;4944929;28;20025;-49
2024/03/23 02:38:06;;;;;;;11.02;3.20;;;4.90;99.90;;;;;;4985583;28;20195;-48
2024/03/23 02:40:31;;;;;;;9.85;3.00;;;4.80;99.90;;;;;;4944379;28;20026;-53
2024/03/23 02:42:57;;;;;;;11.32;3.60;;;4.90;99.90;;;;;;4978946;28;20099;-59
2024/03/23 02:45:22;;;;;;;13.85;3.58;;;4.80;99.90;;;;;;4952001;28;20048;-51
2024/03/23 02:47:51;;;;;;;10.60;3.63;;;4.80;99.90;;;;;;4944758;28;22326;-51
2024/03/23 02:50:18;;;;;;;8.93;3.25;;;4.80;99.90;;;;;;4979041;28;20026;-52
2024/03/23 02:52:43;;;;;;;9.77;3.03;;;4.80;99.90;;;;;;4942277;28;20033;-52
2024/03/23 02:55:09;;;;;;;20.20;4.20;;;4.80;99.90;;;;;;4940649;28;20037;-54
2024/03/23 02:57:35;;;;;;;12.93;3.20;;;4.80;99.90;;;;;;4979100;28;20022;-52
2024/03/23 03:00:00;;;;;;;12.65;3.75;;;4.80;99.90;;;;;;4942166;28;20116;-54
2024/03/23 03:02:26;;;;;;;12.80;3.45;;;4.80;99.90;;;;;;4977350;28;20025;-49
2024/03/23 03:04:52;;;;;;;10.98;3.00;;;4.80;99.90;;;;;;4940002;28;20101;-50
2024/03/23 03:07:17;;;;;;;10.77;3.50;;;4.70;99.90;;;;;;4939609;28;21426;-48
2024/03/23 03:09:43;;;;;;;12.63;3.17;;;4.70;99.90;;;;;;4982169;28;20529;-47
2024/03/23 03:12:08;;;;;;;15.63;2.92;;;4.70;99.90;;;;;;4934843;28;20605;-49
2024/03/23 03:14:35;;;;;;;12.80;3.70;;;4.70;99.90;;;;;;4938603;28;20753;-57
2024/03/23 03:17:00;;;;;;;11.07;2.80;;;4.70;99.90;;;;;;4980481;28;20026;-48
2024/03/23 03:19:26;;;;;;;13.55;3.03;;;4.70;99.90;;;;;;4938482;28;20036;-50
2024/03/23 03:21:51;;;;;;;8.20;2.53;;;4.70;99.90;;;;;;4982961;28;20124;-51
2024/03/23 03:24:17;;;;;;;14.88;3.00;;;4.60;99.90;;;;;;4933514;28;20067;-52
2024/03/23 03:26:43;;;;;;;11.60;3.60;;;4.60;99.90;;;;;;4938181;28;20029;-50
2024/03/23 03:29:08;;;;;;;9.45;3.15;;;4.60;99.90;;;;;;4978836;28;20037;-50
2024/03/23 03:31:34;;;;;;;8.18;2.30;;;4.50;99.90;;;;;;4939639;28;20449;-51
2024/03/23 03:33:59;;;;;;;6.57;2.00;;;4.50;99.90;;;;;;4963230;28;20030;-59
2024/03/23 03:36:25;;;;;;;6.63;2.78;;;4.50;99.90;;;;;;4957168;28;20025;-48
2024/03/23 03:38:51;;;;;;;11.60;3.47;;;4.50;99.90;;;;;;4935402;28;21722;-49
2024/03/23 03:41:17;;;;;;;11.55;2.95;;;4.50;99.90;;;;;;4975088;28;20155;-52
2024/03/23 03:43:43;;;;;;;6.78;2.75;;;4.50;99.90;;;;;;4932188;28;20033;-50
2024/03/23 03:46:09;;;;;;;14.27;3.40;;;4.40;99.90;;;;;;4935603;28;20519;-47
2024/03/23 03:48:35;;;;;;;11.30;2.65;;;4.40;99.90;;;;;;4992467;28;20040;-49
2024/03/23 03:51:00;;;;;;;13.90;3.38;;;4.40;99.90;;;;;;4931940;28;20029;-47
2024/03/23 03:53:26;;;;;;;11.13;3.13;;;4.40;99.90;;;;;;4972337;28;20033;-49
2024/03/23 03:55:52;;;;;;;10.07;2.50;;;4.40;99.90;;;;;;4927996;28;20418;-53
2024/03/23 03:58:17;;;;;;;10.00;2.95;;;4.40;99.90;;;;;;4930059;28;22061;-48
2024/03/23 04:00:43;;;;;;;10.40;2.83;;;4.30;99.90;;;;;;4977288;28;20131;-48
2024/03/23 04:03:09;;;;;;;12.85;2.85;;;4.30;99.90;;;;;;4928148;28;20025;-52
2024/03/23 04:05:34;;;;;;;13.25;2.97;;;4.30;99.90;;;;;;4931811;28;20041;-58
2024/03/23 04:08:00;;;;;;;7.65;3.10;;;4.30;99.90;;;;;;4954674;28;20042;-50
2024/03/23 04:10:26;;;;;;;7.60;2.67;;;4.30;99.90;;;;;;4922812;28;21569;-51
2024/03/23 04:12:52;;;;;;;10.77;2.70;;;4.20;99.90;;;;;;4976011;28;20116;-50
2024/03/23 04:15:17;;;;;;;7.78;2.50;;;4.20;99.90;;;;;;4922155;28;20030;-53
2024/03/23 04:17:43;;;;;;;14.65;3.17;;;4.20;99.90;;;;;;4933820;28;20029;-53
2024/03/23 04:20:11;;;;;;;11.70;3.60;;;4.20;99.90;;;;;;4969708;28;20049;-51
2024/03/23 04:22:39;;;;;;;16.80;3.30;;;4.20;99.90;;;;;;4918208;28;20681;-52
2024/03/23 04:25:10;;;;;;;18.95;2.97;;;4.20;99.90;;;;;;4924452;28;20142;-58
2024/03/23 04:27:37;;;;;;;5.20;2.30;;;4.20;99.90;;;;;;4973919;28;20033;-53
2024/03/23 04:30:04;;;;;;;10.40;3.22;;;4.10;99.90;;;;;;4924762;28;20553;-51
2024/03/23 04:32:30;;;;;;;7.43;3.05;;;4.10;99.90;;;;;;4953794;28;20028;-58
2024/03/23 04:34:56;;;;;;;11.30;2.45;;;4.10;99.90;;;;;;4936677;28;20034;-52
2024/03/23 04:37:22;;;;;;;9.82;2.80;;;4.10;99.90;;;;;;4916410;28;21924;-49
2024/03/23 04:39:48;;;;;;;10.55;3.05;;;4.10;99.90;;;;;;4968669;28;20033;-51
2024/03/23 04:42:15;;;;;;;9.57;2.80;;;4.10;99.90;;;;;;4947596;28;20474;-52
2024/03/23 04:44:41;;;;;;;8.10;2.80;;;4.00;99.90;;;;;;4912875;28;20092;-52
2024/03/23 04:47:06;;;;;;;12.68;2.53;;;4.00;99.90;;;;;;4961840;28;20551;-54
2024/03/23 04:49:32;;;;;;;12.45;3.25;;;4.00;99.90;;;;;;4919231;28;20555;-51
2024/03/23 04:51:58;;;;;;;7.50;2.78;;;4.00;99.90;;;;;;4957500;28;20022;-58
2024/03/23 04:54:24;;;;;;;8.95;3.08;;;4.00;99.90;;;;;;4937004;28;20461;-52
2024/03/23 04:56:49;;;;;;;7.50;2.55;;;4.00;99.90;;;;;;4913871;28;22820;-51
2024/03/23 04:59:15;;;;;;;11.02;3.13;;;3.90;99.90;;;;;;4961502;28;20525;-51
2024/03/23 05:01:41;;;;;;;8.98;3.42;;;3.90;99.90;;;;;;4911471;28;20069;-49
2024/03/23 05:04:08;;;;;;;16.67;3.20;;;3.90;99.90;;;;;;4916436;28;20440;-57
2024/03/23 05:06:34;;;;;;;11.93;3.17;;;3.90;99.90;;;;;;5006842;22;20053;-53
2024/03/23 05:09:03;;;;;;;10.07;3.17;;;3.90;99.90;;;;;;4972436;28;20036;-58
2024/03/23 05:11:28;;;;;;;8.52;2.88;;;3.90;99.90;;;;;;4952159;28;20025;-60
2024/03/23 05:13:54;;;;;;;10.90;3.15;;;3.90;99.90;;;;;;4944709;28;20025;-50
2024/03/23 05:16:19;;;;;;;11.25;3.22;;;3.90;99.90;;;;;;4977458;28;21632;-50
2024/03/23 05:18:45;;;;;;;8.20;2.40;;;3.90;99.90;;;;;;4964893;28;20033;-50
2024/03/23 05:21:10;;;;;;;10.77;3.33;;;3.90;99.90;;;;;;4909771;28;20032;-51
2024/03/23 05:23:37;;;;;;;8.18;2.50;;;3.90;99.90;;;;;;4915801;28;22150;-60
2024/03/23 05:26:04;;;;;;;9.05;2.40;;;3.90;99.90;;;;;;4960372;28;20032;-53
2024/03/23 05:28:29;;;;;;;18.90;3.53;;;3.90;99.90;;;;;;4932515;28;20044;-51
2024/03/23 05:30:56;;;;;;;6.93;3.00;;;3.90;99.90;;;;;;4979174;28;20029;-48
2024/03/23 05:33:22;;;;;;;8.00;2.45;;;3.90;99.90;;;;;;4913616;28;20060;-52
2024/03/23 05:35:59;;;;;;;8.32;3.08;;;3.90;99.90;;;;;;4939743;28;22100;-50
2024/03/23 05:38:24;;;;;;;;;;;3.90;99.90;;;;;;4961391;28;20037;-50
2024/03/23 05:41:00;;;;;;;12.07;2.97;;;3.90;99.90;;;;;;4901424;28;19909;-50
2024/03/23 05:43:26;;;;;;;11.02;3.88;;;3.90;99.90;;;;;;4954260;28;20037;-50
2024/03/23 05:45:55;;;;;;;12.40;3.50;;;3.90;99.90;;;;;;4962268;28;20025;-51
2024/03/23 05:48:21;;;;;;;9.85;2.88;;;4.00;99.90;;;;;;4949851;28;20033;-51
2024/03/23 05:50:48;;;;;;;12.25;3.35;;;4.00;99.90;;;;;;4900464;28;21541;-52
2024/03/23 05:53:20;;;;;;;8.70;3.05;;;4.00;99.90;;;;;;4940775;28;20029;-51
2024/03/23 05:55:47;;;;;;;17.20;3.53;;;4.00;99.90;;;;;;4895684;28;20495;-51
2024/03/23 05:58:14;;;;;;;11.77;3.00;;;4.00;99.90;;;;;;4906526;28;20490;-50
2024/03/23 06:00:40;;;;;;;13.25;3.78;;;4.00;99.90;;;;;;4961283;28;20025;-53
2024/03/23 06:03:05;;;;;;;9.38;2.63;;;4.10;99.90;;;;;;4922388;28;20056;-53
2024/03/23 06:05:31;;;;;;;19.42;3.45;;;4.10;99.90;;;;;;4928378;28;20041;-59
2024/03/23 06:07:56;;;;;;;10.02;2.88;;;4.10;99.90;;;;;;4936576;28;20034;-52
2024/03/23 06:10:22;;;;;;;9.68;2.28;;;4.10;99.90;;;;;;4977443;28;20053;-52
2024/03/23 06:12:49;;;;;;;13.13;3.55;;;4.10;99.90;;;;;;4955780;28;20121;-54
2024/03/23 06:15:14;;;;;;;10.70;3.13;;;4.20;99.90;;;;;;4971934;28;20022;-53
2024/03/23 06:17:40;;;;;;;19.67;3.78;;;4.20;99.90;;;;;;4937249;28;20371;-53
2024/03/23 06:20:06;;;;;;;16.40;3.38;;;4.20;99.90;;;;;;4991948;28;20063;-48
2024/03/23 06:22:33;;;;;;;11.63;3.25;;;4.30;99.90;;;;;;4958023;28;20147;-51
2024/03/23 06:24:59;;;;;;;10.25;2.85;;;4.30;99.90;;;;;;4945207;28;20037;-54
2024/03/23 06:27:24;;;;;;;14.00;4.10;;;4.30;99.90;;;;;;4903759;28;20539;-49
2024/03/23 06:29:50;;;;;;;15.00;3.80;;;4.30;99.90;;;;;;4965876;28;20159;-50
2024/03/23 06:32:15;;;;;;;13.60;3.00;;;4.40;99.90;;;;;;4965875;28;20026;-51
2024/03/23 06:34:44;;;;;;;11.18;2.65;;;4.40;99.90;;;;;;4976937;28;20026;-54
2024/03/23 06:37:10;;;;;;;11.07;3.13;;;4.40;99.90;;;;;;4991492;28;20128;-53
2024/03/23 06:39:39;;;;;;;12.93;2.80;;;4.50;99.90;;;;;;4998366;28;20030;-53
2024/03/23 06:42:05;;;;;;;17.23;3.47;;;4.50;99.90;;;;;;4996977;28;20053;-54
2024/03/23 06:44:30;;;;;;;14.73;3.97;;;4.50;99.90;;;;;;4965909;28;20724;-49
2024/03/23 06:46:57;;;;;;;14.00;3.70;;;4.60;99.90;;;;;;4966029;28;20058;-60
2024/03/23 06:49:23;;;;;;;12.88;3.55;;;4.70;99.90;;;;;;4989400;28;20041;-48
2024/03/23 06:51:48;;;;;;;18.23;3.72;;;4.70;99.90;;;;;;5001330;28;21019;-51
2024/03/23 06:54:14;;;;;;;14.90;3.45;;;4.70;99.90;;;;;;5005291;28;20026;-47
2024/03/23 06:56:40;;;;;;;13.13;2.65;;;4.70;99.90;;;;;;4963436;28;20521;-50
2024/03/23 06:59:06;;;;;;;19.85;4.70;;;4.70;99.90;;;;;;4957124;28;20036;-50
2024/03/23 07:01:32;;;;;;;12.32;3.20;;;4.80;99.90;;;;;;4969249;28;21328;-52
2024/03/23 07:03:57;;;;;;;15.20;3.55;;;4.80;99.90;;;;;;4996602;28;20042;-52
2024/03/23 07:06:23;;;;;;;13.38;2.67;;;4.80;99.90;;;;;;5000654;28;20068;-53
2024/03/23 07:08:48;;;;;;;16.15;2.83;;;4.80;99.90;;;;;;4985847;28;20039;-52
2024/03/23 07:11:21;;;;;;;17.67;4.35;;;4.80;99.90;;;;;;4948495;28;20494;-52
2024/03/23 07:13:49;;;;;;;13.82;3.65;;;4.80;99.90;;;;;;4994440;28;20096;-50
2024/03/23 07:16:16;;;;;;;15.68;4.05;;;4.80;99.90;;;;;;4981645;28;20033;-50
2024/03/23 07:18:41;;;;;;;9.68;3.22;;;4.80;99.90;;;;;;4994150;28;20053;-53
2024/03/23 07:21:07;;;;;;;12.25;3.17;;;4.90;99.90;;;;;;4941069;28;20509;-49
2024/03/23 07:23:33;;;;;;;13.20;3.60;;;4.90;99.90;;;;;;4967242;28;20029;-49
2024/03/23 07:26:04;;;;;;;16.00;3.63;;;4.90;99.90;;;;;;4988244;28;20032;-60
2024/03/23 07:28:32;;;;;;;16.80;3.63;;;5.10;99.90;;;;;;4991286;28;20417;-52
2024/03/23 07:31:08;;;;;;;16.27;4.45;;;5.20;99.90;;;;;;4991368;28;20056;-52
2024/03/23 07:33:35;;;;;;;17.45;3.72;;;5.40;99.90;;;;;;4984042;28;20131;-52
2024/03/23 07:36:05;;;;;;;12.55;3.22;;;5.50;99.90;;;;;;4987257;28;20033;-51
2024/03/23 07:38:30;;;;;;;13.20;3.33;;;5.60;99.90;;;;;;4966652;28;20037;-51
2024/03/23 07:41:10;;;;;;;16.15;3.42;;;5.70;99.90;;;;;;5000461;28;20032;-61
2024/03/23 07:43:36;;;;;;;19.20;3.67;;;5.70;99.90;;;;;;4971588;28;20310;-49
2024/03/23 07:46:03;;;;;;;11.43;3.38;;;5.80;99.90;;;;;;4985287;28;20399;-55
2024/03/23 07:48:30;;;;;;;14.82;3.67;;;5.80;99.90;;;;;;4989146;28;20079;-61
2024/03/23 07:51:03;;;;;;;15.40;4.43;;;5.90;99.90;;;;;;4992228;28;20062;-49
2024/03/23 07:53:29;;;;;;;8.80;3.03;;;6.00;99.90;;;;;;4980091;28;20033;-53
2024/03/23 07:56:00;;;;;;;11.45;2.28;;;6.20;99.90;;;;;;4983414;28;20035;-52
2024/03/23 07:58:27;;;;;;;11.77;2.90;;;6.30;99.90;;;;;;4991909;28;20546;-49
2024/03/23 08:00:53;;;;;;;16.83;3.35;;;6.50;99.90;;;;;;4978017;28;20686;-51
2024/03/23 08:03:19;;;;;;;13.75;3.47;;;6.70;99.90;;;;;;4971846;28;20030;-54
2024/03/23 08:05:44;;;;;;;11.95;3.30;;;6.80;99.90;;;;;;4958245;28;20033;-53
2024/03/23 08:08:10;;;;;;;12.43;3.65;;;6.90;99.90;;;;;;4974032;28;20706;-50
2024/03/23 08:10:37;;;;;;;13.43;4.47;;;7.10;99.90;;;;;;4986170;28;20022;-47
2024/03/23 08:13:02;;;;;;;19.65;4.13;;;7.20;99.90;;;;;;4964946;28;20029;-47
2024/03/23 08:15:32;;;;;;;12.88;3.50;;;7.30;99.90;;;;;;4935055;28;20021;-60
2024/03/23 08:17:58;;;;;;;25.02;4.15;;;7.40;99.90;;;;;;4982581;28;20025;-52
2024/03/23 08:20:24;;;;;;;13.75;3.55;;;7.50;99.90;;;;;;4943685;28;20034;-50
2024/03/23 08:22:49;;;;;;;5.90;2.83;;;7.70;99.90;;;;;;4990036;28;20543;-50
2024/03/23 08:25:15;;;;;;;18.95;4.05;;;7.90;99.90;;;;;;4959171;28;20026;-49
2024/03/23 08:27:41;;;;;;;14.38;4.15;;;7.90;99.90;;;;;;4969531;28;20033;-49
2024/03/23 08:30:07;;;;;;;11.73;3.75;;;8.10;99.90;;;;;;4975759;28;20034;-50
2024/03/23 08:32:32;;;;;;;9.07;3.00;;;8.20;99.90;;;;;;4951476;28;20160;-50
2024/03/23 08:34:58;;;;;;;11.20;4.03;;;8.30;99.90;;;;;;4947696;28;20080;-61
2024/03/23 08:37:24;;;;;;;10.73;3.05;;;8.40;99.90;;;;;;4952386;28;21708;-49
2024/03/23 08:39:51;;;;;;;9.93;3.35;;;8.50;99.90;;;;;;4964058;28;21418;-53
2024/03/23 08:42:16;;;;;;;12.65;3.42;;;8.40;99.90;;;;;;4989368;28;20048;-52
2024/03/23 08:44:46;;;;;;;7.88;3.00;;;8.50;99.90;;;;;;4950943;28;20524;-52
2024/03/23 08:47:12;;;;;;;14.32;3.28;;;8.70;99.90;;;;;;4954178;28;20101;-52
2024/03/23 08:49:37;;;;;;;12.25;3.67;;;8.70;99.90;;;;;;4987084;28;20029;-48
2024/03/23 08:52:03;;;;;;;9.15;2.83;;;8.90;99.90;;;;;;4971520;28;20026;-50
2024/03/23 08:54:31;;;;;;;6.93;3.00;;;8.90;99.90;;;;;;4959625;28;20025;-60
2024/03/23 08:56:56;;;;;;;11.73;2.45;;;9.00;99.90;;;;;;4944567;28;20048;-54
2024/03/23 08:59:23;;;;;;;8.88;2.10;;;9.10;99.90;;;;;;4949118;28;22163;-48
2024/03/23 09:01:49;;;;;;;11.32;3.17;;;9.10;99.90;;;;;;4978765;28;20033;-47
2024/03/23 09:04:14;;;;;;;7.53;2.65;;;9.30;99.90;;;;;;4903731;28;20398;-50
2024/03/23 09:06:42;;;;;;;6.53;2.42;;;9.50;99.90;;;;;;4962979;28;20128;-49
2024/03/23 09:09:08;;;;;;;15.00;3.33;;;9.30;99.90;;;;;;4991235;28;20453;-51
2024/03/23 09:11:34;;;;;;;19.25;4.15;;;9.10;99.90;;;;;;4954168;28;20144;-51
2024/03/23 09:13:59;;;;;;;9.77;2.33;;;9.00;99.90;;;;;;4974237;28;20029;-59
2024/03/23 09:16:25;;;;;;;7.25;2.03;;;8.80;99.90;;;;;;4985495;28;20022;-50
2024/03/23 09:18:51;;;;;;;9.73;2.90;;;8.70;99.90;;;;;;4962246;28;21607;-50
2024/03/23 09:21:17;;;;;;;7.65;2.55;;;8.50;99.90;;;;;;4999120;28;20029;-49
2024/03/23 09:23:46;;;;;;;4.50;2.42;;;8.50;99.90;;;;;;4963960;28;20028;-48
2024/03/23 09:26:12;;;;;;;7.45;2.13;;;8.60;99.90;;;;;;4964525;28;20033;-52
2024/03/23 09:28:37;;;;;;;8.75;2.97;;;8.60;99.90;;;;;;4985465;28;20032;-45
2024/03/23 09:31:04;;;;;;;6.50;2.28;;;8.50;99.90;;;;;;4962970;28;20021;-49
2024/03/23 09:33:29;;;;;;;6.05;2.42;;;8.40;99.90;;;;;;4972211;28;20074;-59
2024/03/23 09:35:56;;;;;;;14.02;2.58;;;8.50;99.90;;;;;;4959506;28;20025;-50
2024/03/23 09:38:24;;;;;;;9.02;2.85;;;8.80;99.90;;;;;;4950713;28;20151;-50
2024/03/23 09:40:53;;;;;;;10.02;3.10;;;8.90;99.90;;;;;;4984736;28;20609;-53
2024/03/23 09:43:19;;;;;;;9.20;2.13;;;9.20;99.90;;;;;;4955969;28;20088;-52
2024/03/23 09:45:45;;;;;;;7.38;2.13;;;9.30;99.90;;;;;;4950816;28;20061;-51
2024/03/23 09:48:12;;;;;;;6.15;1.80;;;9.30;99.90;;;;;;4982927;28;20421;-52
2024/03/23 09:50:39;;;;;;;7.75;2.45;;;9.30;99.90;;;;;;4948470;28;20032;-50
2024/03/23 09:53:06;;;;;;;9.98;2.60;;;9.30;99.90;;;;;;4949286;28;20026;-59
2024/03/23 09:55:32;;;;;;;5.55;1.77;;;9.20;99.90;;;;;;4996464;28;20032;-47
2024/03/23 09:57:58;;;;;;;7.32;2.75;;;9.10;99.90;;;;;;4961565;28;20049;-50
2024/03/23 10:00:23;;;;;;;11.57;2.03;;;9.20;99.90;;;;;;4987674;28;20222;-53
2024/03/23 10:02:49;;;;;;;10.98;2.38;;;9.20;99.90;;;;;;4944285;28;20032;-51
2024/03/23 10:05:22;;;;;;;10.93;2.20;;;9.10;99.90;;;;;;4968512;28;20033;-52
2024/03/23 10:07:49;;;;;;;7.65;1.88;;;9.10;99.90;;;;;;4985278;28;20029;-50
2024/03/23 10:10:16;;;;;;;5.88;2.33;;;9.00;99.90;;;;;;4940212;28;20524;-52
2024/03/23 10:12:51;;;;;;;6.57;1.90;;;9.00;99.90;;;;;;4940379;28;20440;-47
2024/03/23 10:15:22;;;;;;;4.97;1.90;;;9.10;99.90;;;;;;4976832;28;20879;-53
2024/03/23 10:17:48;;;;;;;9.25;2.40;;;9.30;99.90;;;;;;4933391;28;20175;-49
2024/03/23 10:20:22;;;;;;;6.13;2.20;;;9.60;99.90;;;;;;4943909;28;20124;-50
2024/03/23 10:22:51;;;;;;;5.53;2.38;;;9.80;99.90;;;;;;4979673;28;20056;-49
2024/03/23 10:25:18;;;;;;;7.97;2.10;;;10.00;99.90;;;;;;4933947;28;20124;-51
2024/03/23 10:27:43;;;;;;;8.77;2.05;;;9.90;99.90;;;;;;4931373;28;20021;-53
2024/03/23 10:30:16;;;;;;;8.98;2.08;;;9.90;99.90;;;;;;4981691;28;20033;-51
2024/03/23 10:32:42;;;;;;;13.23;2.85;;;9.90;99.90;;;;;;4938375;28;20501;-48
2024/03/23 10:35:18;;;;;;;8.98;2.00;;;9.70;99.90;;;;;;4935936;28;20033;-52
2024/03/23 10:37:46;;;;;;;4.95;1.52;;;9.60;99.90;;;;;;4981678;28;20040;-51
2024/03/23 10:40:12;;;;;;;4.70;1.85;;;9.50;99.90;;;;;;4926517;28;20056;-56
2024/03/23 10:42:38;;;;;;;5.95;2.20;;;9.30;99.90;;;;;;4930778;28;20052;-50
2024/03/23 10:45:05;;;;;;;6.05;1.88;;;9.40;99.90;;;;;;4973186;28;20441;-49
2024/03/23 10:47:32;;;;;;;6.63;2.00;;;9.60;99.90;;;;;;4926307;28;20037;-50
2024/03/23 10:49:58;;;;;;;5.43;1.40;;;9.70;99.90;;;;;;4969007;28;20104;-59
2024/03/23 10:52:24;;;;;;;5.28;2.00;;;9.70;99.90;;;;;;4937691;28;20495;-49
2024/03/23 10:54:51;;;;;;;3.58;1.17;;;9.50;99.90;;;;;;4928115;28;21441;-53
2024/03/23 10:57:26;;;;;;;3.55;1.00;;;9.50;99.90;;;;;;4971002;28;20030;-49
2024/03/23 10:59:52;;;;;;;4.07;1.05;;;9.40;99.90;;;;;;4945406;28;20059;-53
2024/03/23 11:02:21;;;;;;;5.22;1.40;;;9.30;99.90;;;;;;4923808;28;21137;-50
2024/03/23 11:04:50;;;;;;;6.15;1.52;;;9.30;99.90;;;;;;4973204;28;20041;-53
2024/03/23 11:07:52;;;;;;;9.15;1.90;;;9.20;99.90;;;;;;4901331;22;20030;-83
2024/03/23 11:10:25;;;;;;;5.53;1.45;;;9.20;99.90;;;;;;4894736;28;20046;-83
2024/03/23 11:12:56;;;;;;;4.57;1.42;;;9.20;99.90;;;;;;4877938;28;21502;-83
2024/03/23 11:15:21;;;;;;;4.25;1.48;;;9.30;99.90;;;;;;4934209;28;20027;-84
2024/03/23 11:18:07;;;;;;;4.53;1.75;;;9.30;99.90;;;;;;4880798;28;20031;-83
2024/03/23 11:20:34;;;;;;;4.07;1.45;;;9.20;99.90;;;;;;4873094;28;20058;-83
2024/03/23 11:23:11;;;;;;;4.22;1.05;;;9.10;99.90;;;;;;4906034;28;20042;-81
2024/03/23 11:25:36;;;;;;;6.90;1.60;;;9.10;99.90;;;;;;4922873;28;20530;-81
2024/03/23 11:28:12;;;;;;;3.63;1.05;;;9.20;99.90;;;;;;4879697;28;20035;-84
2024/03/23 11:30:40;;;;;;;6.80;0.90;;;9.40;99.90;;;;;;4873772;28;20019;-83
2024/03/23 11:33:06;;;;;;;5.93;1.42;;;9.40;99.90;;;;;;4926383;28;20023;-83
2024/03/23 11:35:34;;;;;;;3.72;0.90;;;9.40;99.90;;;;;;4874204;28;20491;-83
2024/03/23 11:38:20;;;;;;;1.88;0.28;;;9.00;99.90;;;;;;4912254;28;20502;-83
2024/03/23 11:40:47;;;;;;;1.42;0.60;;;8.90;99.90;;;;;;4927244;28;20487;-84
2024/03/23 11:43:18;;;;;;;3.47;0.63;;;9.00;99.90;;;;;;4884878;28;20374;-84
2024/03/23 11:45:45;;;;;;;4.57;0.95;;;9.10;99.90;;;;;;4877323;28;20532;-84
2024/03/23 11:48:14;;;;;;;6.72;1.38;;;9.20;99.90;;;;;;4920232;28;20027;-83
2024/03/23 11:50:41;;;;;;;3.08;1.10;;;9.30;99.90;;;;;;4875656;28;20027;-84
2024/03/23 11:53:20;;;;;;;4.10;1.33;;;9.40;99.90;;;;;;4876595;28;20114;-82
2024/03/23 11:55:55;;;;;;;4.43;1.20;;;9.30;99.90;;;;;;4934581;28;20162;-83
2024/03/23 11:58:24;;;;;;;2.13;1.38;;;8.90;99.90;;;;;;4875268;28;21096;-83
2024/03/23 12:00:59;;;;;;;3.10;1.17;;;8.50;99.90;;;;;;4886666;28;22072;-83
2024/03/23 12:03:44;;;;;;;4.07;0.82;;;8.10;99.90;;;;;;4923367;28;20023;-83
2024/03/23 12:06:09;;;;;;;1.67;0.50;;;7.70;99.90;;;;;;4928851;28;20037;-83
2024/03/23 12:08:35;;;;;;;2.38;0.55;;;7.30;99.90;;;;;;4883693;28;20383;-82
2024/03/23 12:11:13;;;;;;;1.83;0.57;;;7.20;99.90;;;;;;4900659;28;20110;-81
2024/03/23 12:13:41;;;;;;;4.15;0.50;;;7.10;99.90;;;;;;4923153;28;20090;-83
2024/03/23 12:16:24;;;;;;;0.88;0.30;;;7.00;99.90;;;;;;4886451;28;20031;-83
2024/03/23 12:18:54;;;;;;;2.20;0.47;;;6.90;99.90;;;;;;4875450;28;21644;-83
2024/03/23 12:21:22;;;;;;;0.32;0.30;;;7.00;99.90;;;;;;4925201;28;20018;-83
2024/03/23 12:23:50;;;;;;;1.38;0.60;;;7.00;99.90;;;;;;4880718;28;20031;-83
2024/03/23 12:26:16;;;;;;;1.48;0.43;;;7.10;99.90;;;;;;4890366;28;20094;-83
2024/03/23 12:28:42;;;;;;;2.28;0.60;;;7.20;99.90;;;;;;4928027;28;20027;-83
2024/03/23 12:31:07;;;;;;;1.58;0.82;;;7.40;99.90;;;;;;4877590;28;20038;-83
2024/03/23 12:33:33;;;;;;;0.93;0.50;;;7.60;99.90;;;;;;4890718;28;20635;-82
2024/03/23 12:35:59;;;;;;;3.20;1.08;;;7.90;99.90;;;;;;4901266;28;20042;-84
2024/03/23 12:38:27;;;;;;;2.42;0.80;;;8.10;99.90;;;;;;4872108;28;20565;-84
2024/03/23 12:40:52;;;;;;;0.60;0.50;;;8.10;99.90;;;;;;4921835;28;20514;-83
2024/03/23 12:43:18;;;;;;;2.22;0.90;;;7.90;99.90;;;;;;4876977;28;20034;-83
2024/03/23 12:45:50;;;;;;;4.60;0.85;;;7.70;99.90;;;;;;4871236;28;20976;-84
2024/03/23 12:48:16;;;;;;;1.30;0.47;;;7.50;99.90;;;;;;4935440;28;20082;-83
2024/03/23 12:50:42;;;;;;;0.90;0.50;;;7.30;99.90;;;;;;4884149;28;20027;-84